Time;durP1;ratioP1;P1;durP2;ratioP2;P2;SDS_P1;SDS_P2;PMS_P1;PMS_P2;Temp;Humidity;BMP_temperature;BMP_pressure;BME280_temperature;BME280_humidity;BME280_pressure;Samples;Min_cycle;Max_cycle;Signal;HPM_P1;HPM_P2
2022/05/18 00:00:22;;;;;;;;;;;;;;;-142.75;100.00;76849.81;5069797;28;19966;-69
2022/05/18 00:02:48;;;;;;;;;;;;;;;-142.75;100.00;76857.69;5069802;28;19912;-69
2022/05/18 00:05:13;;;;;;;;;;;;;;;-142.75;100.00;76853.75;5069882;28;19913;-69
2022/05/18 00:07:38;;;;;;;;;;;;;;;-142.75;100.00;76853.75;5062174;22;20354;-71
2022/05/18 00:10:04;;;;;;;;;;;;;;;-142.75;100.00;76863.59;5047198;28;19943;-71
2022/05/18 00:12:29;;;;;;;;;;;;;;;-142.75;100.00;76863.59;5047907;28;19952;-71
2022/05/18 00:14:55;;;;;;;;;;;;;;;-142.75;100.00;76863.59;5048553;28;19964;-71
2022/05/18 00:17:20;;;;;;;;;;;;;;;-142.75;100.00;76857.69;5055482;28;19919;-71
2022/05/18 00:19:45;;;;;;;;;;;;;;;-142.75;100.00;76857.69;5069700;28;20398;-72
2022/05/18 00:22:11;;;;;;;;;;;;;;;-142.75;100.00;76855.72;5068392;28;19963;-72
2022/05/18 00:24:38;;;;;;;;;;;;;;;-142.75;100.00;76857.69;5068383;28;19973;-71
2022/05/18 00:27:03;;;;;;;;;;;;;;;-142.75;100.00;76861.63;5069560;28;19912;-72
2022/05/18 00:29:29;;;;;;;;;;;;;;;-142.75;100.00;76865.56;5049220;28;19920;-71
2022/05/18 00:31:55;;;;;;;;;;;;;;;-142.75;100.00;76893.13;5067574;28;19916;-73
2022/05/18 00:34:20;;;;;;;;;;;;;;;-142.75;100.00;76906.91;5068199;28;19912;-73
2022/05/18 00:36:45;;;;;;;;;;;;;;;-142.75;100.00;76916.75;5062529;28;19917;-73
2022/05/18 00:39:10;;;;;;;;;;;;;;;-142.75;100.00;76930.53;5048161;28;20010;-73
2022/05/18 00:41:37;;;;;;;;;;;;;;;-142.75;100.00;76940.38;5067635;28;19924;-73
2022/05/18 00:44:03;;;;;;;;;;;;;;;-142.75;100.00;76952.19;5049727;28;19919;-73
2022/05/18 00:46:28;;;;;;;;;;;;;;;-142.75;100.00;76948.25;5049521;28;19913;-73
2022/05/18 00:48:53;;;;;;;;;;;;;;;-142.75;100.00;76936.44;5049222;28;20007;-73
2022/05/18 00:51:19;;;;;;;;;;;;;;;-142.75;100.00;76932.50;5068275;28;20365;-72
2022/05/18 00:53:56;;;;;;;;;;;;;;;-142.75;100.00;76930.53;5060612;28;20329;-74
2022/05/18 00:56:31;;;;;;;;;;;;;;;-142.75;100.00;76926.59;5053552;28;19913;-73
2022/05/18 00:59:02;;;;;;;;;;;;;;;-142.75;100.00;76920.69;5051619;28;19927;-75
2022/05/18 01:01:27;;;;;;;;;;;;;;;-142.75;100.00;76906.91;5053364;28;19916;-73
2022/05/18 01:03:53;;;;;;;;;;;;;;;-142.75;100.00;76908.88;5071458;28;19920;-73
2022/05/18 01:06:38;;;;;;;;;;;;;;;-142.75;100.00;76908.88;5070826;28;19952;-74
2022/05/18 01:09:13;;;;;;;;;;;;;;;-142.75;100.00;76920.69;5071665;28;19912;-73
2022/05/18 01:11:41;;;;;;;;;;;;;;;-142.75;100.00;76916.75;5072185;28;20002;-73
2022/05/18 01:14:19;;;;;;;;;;;;;;;-142.75;100.00;76916.75;5072739;28;19919;-73
2022/05/18 01:16:45;;;;;;;;;;;;;;;-142.75;100.00;76918.72;5086795;28;19912;-73
2022/05/18 01:19:18;;;;;;;;;;;;;;;-142.75;100.00;76920.69;5072501;28;20059;-73
2022/05/18 01:21:47;;;;;;;;;;;;;;;-142.75;100.00;76920.69;5072441;28;20041;-74
2022/05/18 01:24:27;;;;;;;;;;;;;;;-142.75;100.00;76924.63;5057473;28;20355;-74
2022/05/18 01:26:53;;;;;;;;;;;;;;;-142.75;100.00;76928.56;5052982;28;20412;-73
2022/05/18 01:29:19;;;;;;;;;;;;;;;-142.75;100.00;76936.44;5071581;28;20002;-73
2022/05/18 01:31:49;;;;;;;;;;;;;;;-142.75;100.00;76938.41;5072649;28;20051;-72
2022/05/18 01:34:15;;;;;;;;;;;;;;;-142.75;100.00;76952.19;5071558;28;19920;-73
2022/05/18 01:36:41;;;;;;;;;;;;;;;-142.75;100.00;76956.13;5070120;28;19920;-73
2022/05/18 01:39:08;;;;;;;;;;;;;;;-142.75;100.00;76965.97;5070884;28;20297;-74
2022/05/18 01:41:37;;;;;;;;;;;;;;;-142.75;100.00;76967.94;5071199;28;19912;-73
2022/05/18 01:44:03;;;;;;;;;;;;;;;-142.75;100.00;76971.88;5072499;28;19912;-73
2022/05/18 01:46:31;;;;;;;;;;;;;;;-142.75;100.00;76977.78;5072346;28;20292;-73
2022/05/18 01:48:56;;;;;;;;;;;;;;;-142.75;100.00;76981.72;5070413;28;19916;-74
2022/05/18 01:51:35;;;;;;;;;;;;;;;-142.75;100.00;76983.69;5072199;28;19923;-74
2022/05/18 01:54:01;;;;;;;;;;;;;;;-142.75;100.00;76983.69;5069695;28;19948;-73
2022/05/18 01:56:26;;;;;;;;;;;;;;;-142.75;100.00;76985.66;5052377;28;20006;-72
2022/05/18 01:58:51;;;;;;;;;;;;;;;-142.75;100.00;76987.63;5051936;28;19912;-74
2022/05/18 02:01:16;;;;;;;;;;;;;;;-142.75;100.00;76985.66;5070129;28;19912;-73
2022/05/18 02:03:42;;;;;;;;;;;;;;;-142.75;100.00;76983.69;5071271;28;19986;-74
2022/05/18 02:06:07;;;;;;;;;;;;;;;-142.75;100.00;76983.69;5071782;28;20369;-74
2022/05/18 02:08:32;;;;;;;;;;;;;;;-142.75;100.00;76983.69;5066523;28;19920;-73
2022/05/18 02:10:58;;;;;;;;;;;;;;;-142.75;100.00;76983.69;5071842;28;19916;-74
2022/05/18 02:13:23;;;;;;;;;;;;;;;-142.75;100.00;76975.81;5071865;28;19912;-73
2022/05/18 02:15:48;;;;;;;;;;;;;;;-142.75;100.00;76971.88;5071881;28;19912;-73
2022/05/18 02:18:13;;;;;;;;;;;;;;;-142.75;100.00;76969.91;5071467;28;20620;-73
2022/05/18 02:20:39;;;;;;;;;;;;;;;-142.75;100.00;76967.94;5071762;28;19958;-73
2022/05/18 02:23:05;;;;;;;;;;;;;;;-142.75;100.00;76962.03;5068935;28;19920;-73
2022/05/18 02:25:32;;;;;;;;;;;;;;;-142.75;100.00;76954.16;5070383;28;19919;-73
2022/05/18 02:27:57;;;;;;;;;;;;;;;-142.75;100.00;76954.16;5071276;28;20367;-73
2022/05/18 02:30:23;;;;;;;;;;;;;;;-142.75;100.00;76952.19;5071458;28;19924;-73
2022/05/18 02:32:48;;;;;;;;;;;;;;;-142.75;100.00;76956.13;5068704;28;20421;-73
2022/05/18 02:35:13;;;;;;;;;;;;;;;-142.75;100.00;76952.19;5071705;28;19993;-73
2022/05/18 02:37:38;;;;;;;;;;;;;;;-142.75;100.00;76956.13;5069085;28;19912;-73
2022/05/18 02:40:05;;;;;;;;;;;;;;;-142.75;100.00;76958.09;5070958;28;19912;-73
2022/05/18 02:42:30;;;;;;;;;;;;;;;-142.75;100.00;76962.03;5070044;28;19912;-74
2022/05/18 02:44:55;;;;;;;;;;;;;;;-142.75;100.00;76965.97;5069960;28;19923;-74
2022/05/18 02:47:21;;;;;;;;;;;;;;;-142.75;100.00;76964.00;5070944;28;19978;-74
2022/05/18 02:49:46;;;;;;;;;;;;;;;-142.75;100.00;76965.97;5070728;28;19920;-73
2022/05/18 02:52:12;;;;;;;;;;;;;;;-142.75;100.00;76969.91;5070844;28;20030;-71
2022/05/18 02:57:21;;;;;;;;;;;;;;;-142.75;100.00;76973.84;5071012;28;19919;-71
2022/05/18 02:59:47;;;;;;;;;;;;;;;-142.75;100.00;76971.88;5069366;28;20301;-73
2022/05/18 03:02:12;;;;;;;;;;;;;;;-142.75;100.00;76975.81;5071091;28;20394;-74
2022/05/18 03:04:37;;;;;;;;;;;;;;;-142.75;100.00;76979.75;5071091;28;19919;-73
2022/05/18 03:07:03;;;;;;;;;;;;;;;-142.75;100.00;76983.69;5065912;28;20300;-73
2022/05/18 03:09:28;;;;;;;;;;;;;;;-142.75;100.00;76991.56;5070493;28;19920;-74
2022/05/18 03:11:53;;;;;;;;;;;;;;;-142.75;100.00;76983.69;5069268;28;19966;-73
2022/05/18 03:14:18;;;;;;;;;;;;;;;-142.75;100.00;76995.50;5069015;28;19916;-73
2022/05/18 03:16:44;;;;;;;;;;;;;;;-142.75;100.00;76991.56;5069817;28;19912;-73
2022/05/18 03:19:10;;;;;;;;;;;;;;;-142.75;100.00;76987.63;5059223;28;19920;-74
2022/05/18 03:24:19;;;;;;;;;;;;;;;-142.75;100.00;76993.53;5067082;28;19927;-73
2022/05/18 03:26:44;;;;;;;;;;;;;;;-142.75;100.00;76975.81;5070271;28;19912;-73
2022/05/18 03:29:09;;;;;;;;;;;;;;;-142.75;100.00;76975.81;5070191;28;20010;-73
2022/05/18 03:31:34;;;;;;;;;;;;;;;-142.75;100.00;76971.88;5070145;28;19918;-73
2022/05/18 03:33:59;;;;;;;;;;;;;;;-142.75;100.00;76962.03;5069138;28;19912;-73
2022/05/18 03:36:25;;;;;;;;;;;;;;;-142.75;100.00;76960.06;5051153;28;19927;-73
2022/05/18 03:38:51;;;;;;;;;;;;;;;-142.75;100.00;76958.09;5052443;28;20385;-74
2022/05/18 03:41:17;;;;;;;;;;;;;;;-142.75;100.00;76952.19;5069808;28;20003;-73
2022/05/18 03:43:42;;;;;;;;;;;;;;;-142.75;100.00;76944.31;5070179;28;19916;-73
2022/05/18 03:46:07;;;;;;;;;;;;;;;-142.75;100.00;76940.38;5070228;28;20002;-73
2022/05/18 03:48:33;;;;;;;;;;;;;;;-142.75;100.00;76942.34;5069790;28;19912;-73
2022/05/18 03:50:58;;;;;;;;;;;;;;;-142.75;100.00;76936.44;5069904;28;19917;-73
2022/05/18 03:53:24;;;;;;;;;;;;;;;-142.75;100.00;76940.38;5064529;28;19919;-73
2022/05/18 03:55:50;;;;;;;;;;;;;;;-142.75;100.00;76934.47;5069249;28;20366;-74
2022/05/18 03:58:16;;;;;;;;;;;;;;;-142.75;100.00;76924.63;5069490;28;19912;-73
2022/05/18 04:00:42;;;;;;;;;;;;;;;-142.75;100.00;76920.69;5069941;28;19995;-72
2022/05/18 04:03:08;;;;;;;;;;;;;;;-142.75;100.00;76912.81;5069979;28;19958;-73
2022/05/18 04:05:36;;;;;;;;;;;;;;;-142.75;100.00;76902.97;5069916;28;19920;-72
2022/05/18 04:08:01;;;;;;;;;;;;;;;-142.75;100.00;76893.13;5067534;28;19960;-73
2022/05/18 04:10:26;;;;;;;;;;;;;;;-142.75;100.00;76885.25;5064981;28;19959;-74
2022/05/18 04:12:52;;;;;;;;;;;;;;;-142.75;100.00;76873.44;5061183;28;19916;-73
2022/05/18 04:15:18;;;;;;;;;;;;;;;-142.75;100.00;76863.59;5064667;28;20381;-73
2022/05/18 04:17:47;;;;;;;;;;;;;;;-142.75;100.00;76851.78;5064768;28;19912;-73
2022/05/18 04:20:14;;;;;;;;;;;;;;;-142.75;100.00;76847.84;5064935;28;19920;-73
2022/05/18 04:22:39;;;;;;;;;;;;;;;-142.75;100.00;76836.03;5062956;28;19913;-74
2022/05/18 04:25:05;;;;;;;;;;;;;;;-142.75;100.00;76838.00;5064151;28;19928;-73
2022/05/18 04:27:31;;;;;;;;;;;;;;;-142.75;100.00;76824.22;5065638;28;19913;-73
2022/05/18 04:29:56;;;;;;;;;;;;;;;-142.75;100.00;76812.41;5067899;28;19916;-73
2022/05/18 04:32:22;;;;;;;;;;;;;;;-142.75;100.00;76812.41;5067032;28;20287;-73
2022/05/18 04:34:48;;;;;;;;;;;;;;;-142.75;100.00;76802.56;5068490;28;20288;-73
2022/05/18 04:37:14;;;;;;;;;;;;;;;-142.75;100.00;76804.53;5071055;28;20419;-73
2022/05/18 04:39:39;;;;;;;;;;;;;;;-142.75;100.00;76802.56;5067986;28;19913;-73
2022/05/18 04:42:04;;;;;;;;;;;;;;;-142.75;100.00;76808.50;5068811;28;19935;-73
2022/05/18 04:44:29;;;;;;;;;;;;;;;-142.75;100.00;76810.44;5068297;28;19967;-73
2022/05/18 04:46:55;;;;;;;;;;;;;;;-142.75;100.00;76810.44;5066399;28;19955;-73
2022/05/18 04:49:20;;;;;;;;;;;;;;;-142.75;100.00;76810.44;5068379;28;19904;-73
2022/05/18 04:51:45;;;;;;;;;;;;;;;-142.75;100.00;76804.53;5064558;28;19924;-73
2022/05/18 04:54:11;;;;;;;;;;;;;;;-142.75;100.00;76804.53;5068558;28;19977;-72
2022/05/18 04:56:36;;;;;;;;;;;;;;;-142.75;100.00;76794.69;5068270;28;19919;-72
2022/05/18 04:59:01;;;;;;;;;;;;;;;-142.75;100.00;76806.50;5065989;28;19916;-73
2022/05/18 05:01:26;;;;;;;;;;;;;;;-142.75;100.00;76798.66;5068717;28;19912;-73
2022/05/18 05:03:51;;;;;;;;;;;;;;;-142.75;100.00;76792.75;5064402;28;19916;-73
2022/05/18 05:06:17;;;;;;;;;;;;;;;-142.75;100.00;76798.66;5068319;28;20362;-73
2022/05/18 05:08:43;;;;;;;;;;;;;;;-142.75;100.00;76792.75;5065124;28;19912;-73
2022/05/18 05:11:08;;;;;;;;;;;;;;;-142.75;100.00;76794.69;5066076;28;19966;-73
2022/05/18 05:13:34;;;;;;;;;;;;;;;-142.75;100.00;76788.81;5067860;28;19919;-72
2022/05/18 05:16:09;;;;;;;;;;;;;;;-142.75;100.00;76790.78;5065691;28;20007;-73
2022/05/18 05:18:34;;;;;;;;;;;;;;;-142.75;100.00;76788.81;5067758;28;19916;-73
2022/05/18 05:21:00;;;;;;;;;;;;;;;-142.75;100.00;76786.84;5066832;28;19919;-73
2022/05/18 05:23:26;;;;;;;;;;;;;;;-142.75;100.00;76782.91;5067351;28;19917;-73
2022/05/18 05:25:52;;;;;;;;;;;;;;;-142.75;100.00;76780.94;5065815;28;19927;-73
2022/05/18 05:28:17;;;;;;;;;;;;;;;-142.75;100.00;76775.03;5067574;28;20357;-73
2022/05/18 05:30:42;;;;;;;;;;;;;;;-142.75;100.00;76771.09;5066331;28;19928;-73
2022/05/18 05:33:07;;;;;;;;;;;;;;;-142.75;100.00;76775.03;5066993;28;19920;-73
2022/05/18 05:35:33;;;;;;;;;;;;;;;-142.75;100.00;76763.22;5066132;28;19912;-73
2022/05/18 05:37:58;;;;;;;;;;;;;;;-142.75;100.00;76763.22;5066274;28;20388;-73
2022/05/18 05:40:23;;;;;;;;;;;;;;;-142.75;100.00;76763.22;5065879;28;20362;-73
2022/05/18 05:42:49;;;;;;;;;;;;;;;-142.75;100.00;76753.38;5065817;28;19975;-74
2022/05/18 05:45:14;;;;;;;;;;;;;;;-142.75;100.00;76747.47;5067654;28;19912;-73
2022/05/18 05:47:39;;;;;;;;;;;;;;;-142.75;100.00;76749.44;5065911;28;19913;-73
2022/05/18 05:50:05;;;;;;;;;;;;;;;-142.75;100.00;76751.41;5065270;28;19978;-74
2022/05/18 05:52:30;;;;;;;;;;;;;;;-142.75;100.00;76755.34;5067033;28;20367;-71
2022/05/18 05:54:55;;;;;;;;;;;;;;;-142.75;100.00;76755.34;5067404;28;19948;-71
2022/05/18 05:57:20;;;;;;;;;;;;;;;-142.75;100.00;76755.34;5065345;28;19916;-73
2022/05/18 05:59:45;;;;;;;;;;;;;;;-142.75;100.00;76755.34;5066454;28;19920;-73
2022/05/18 06:02:15;;;;;;;;;;;;;;;-142.75;100.00;76757.31;5067317;28;19942;-73
2022/05/18 06:04:40;;;;;;;;;;;;;;;-142.75;100.00;76757.31;5066220;28;19912;-73
2022/05/18 06:09:35;;;;;;;;;;;;;;;-142.75;100.00;76759.28;5053058;22;19921;-68
2022/05/18 06:12:01;;;;;;;;;;;;;;;-142.75;100.00;76761.25;5031696;28;19932;-68
2022/05/18 06:14:26;;;;;;;;;;;;;;;-142.75;100.00;76747.47;5033155;28;19936;-68
2022/05/18 06:16:51;;;;;;;;;;;;;;;-142.75;100.00;76723.84;5033393;28;19916;-68
2022/05/18 06:19:17;;;;;;;;;;;;;;;-142.75;100.00;76690.38;5050231;28;19919;-68
2022/05/18 06:21:43;;;;;;;;;;;;;;;-142.75;100.00;76672.66;5053186;28;19912;-69
2022/05/18 06:24:09;;;;;;;;;;;;;;;-142.75;100.00;76645.09;5053025;28;19913;-68
2022/05/18 06:26:34;;;;;;;;;;;;;;;-142.75;100.00;76621.47;5053185;28;19962;-68
2022/05/18 06:28:59;;;;;;;;;;;;;;;-142.75;100.00;76599.81;5052718;28;19920;-69
2022/05/18 06:31:24;;;;;;;;;;;;;;;-142.75;100.00;76582.09;5053014;28;19951;-69
2022/05/18 06:33:49;;;;;;;;;;;;;;;-142.75;100.00;76566.34;5053046;28;19924;-69
2022/05/18 06:36:15;;;;;;;;;;;;;;;-142.75;100.00;76552.56;5041676;28;19920;-68
2022/05/18 06:38:40;;;;;;;;;;;;;;;-142.75;100.00;76558.47;5032671;28;19914;-68
2022/05/18 06:41:23;;;;;;;;;;;;;;;-142.75;100.00;76570.28;5033014;28;19920;-68
2022/05/18 06:43:50;;;;;;;;;;;;;;;-142.75;100.00;76574.22;5033009;28;19913;-68
2022/05/18 06:46:15;;;;;;;;;;;;;;;-142.75;100.00;76562.41;5032954;28;20403;-68
2022/05/18 06:48:41;;;;;;;;;;;;;;;-142.75;100.00;76570.28;5032428;28;19920;-69
2022/05/18 06:51:06;;;;;;;;;;;;;;;-142.75;100.00;76570.28;5032527;28;19924;-69
2022/05/18 06:53:32;;;;;;;;;;;;;;;-142.75;100.00;76560.44;5032656;28;19913;-68
2022/05/18 06:55:57;;;;;;;;;;;;;;;-142.75;100.00;76576.19;5032736;28;19967;-69
2022/05/18 06:58:22;;;;;;;;;;;;;;;-142.75;100.00;76572.25;5032224;28;19959;-68
2022/05/18 07:00:48;;;;;;;;;;;;;;;-142.75;100.00;76611.63;5032718;28;19940;-69
2022/05/18 07:03:14;;;;;;;;;;;;;;;-142.75;100.00;76609.66;5032596;28;20395;-69
2022/05/18 07:05:39;;;;;;;;;;;;;;;-142.75;100.00;76578.16;5032510;28;19956;-69
2022/05/18 07:08:05;;;;;;;;;;;;;;;-142.75;100.00;76570.28;5032056;28;19952;-69
2022/05/18 07:10:30;;;;;;;;;;;;;;;-142.75;100.00;76552.56;5031079;28;19921;-69
2022/05/18 07:12:56;;;;;;;;;;;;;;;-142.75;100.00;76542.72;5032047;28;19917;-69
2022/05/18 07:15:21;;;;;;;;;;;;;;;-142.75;100.00;76519.13;5031288;28;20012;-68
2022/05/18 07:17:46;;;;;;;;;;;;;;;-142.75;100.00;76513.22;5031003;28;20426;-68
2022/05/18 07:20:12;;;;;;;;;;;;;;;-142.75;100.00;76491.56;5031084;28;19913;-68
2022/05/18 07:22:37;;;;;;;;;;;;;;;-142.75;100.00;76460.06;5031134;28;19917;-68
2022/05/18 07:25:03;;;;;;;;;;;;;;;-142.75;100.00;76444.31;5037547;28;20036;-67
2022/05/18 07:27:29;;;;;;;;;;;;;;;-142.75;100.00;76440.38;5043557;28;19974;-69
2022/05/18 07:29:54;;;;;;;;;;;;;;;-142.75;100.00;76426.59;5050453;28;20365;-69
2022/05/18 07:32:19;;;;;;;;;;;;;;;-142.75;100.00;76412.81;5050752;28;19924;-68
2022/05/18 07:34:44;;;;;;;;;;;;;;;-142.75;100.00;76387.22;5050967;28;20034;-69
2022/05/18 07:37:10;;;;;;;;;;;;;;;-142.75;100.00;76351.81;5050682;28;20437;-68
2022/05/18 07:39:35;;;;;;;;;;;;;;;-142.75;100.00;76326.22;5050575;28;19912;-68
2022/05/18 07:42:01;;;;;;;;;;;;;;;-142.75;100.00;76302.59;5050548;28;20374;-69
2022/05/18 07:44:27;;;;;;;;;;;;;;;-142.75;100.00;76277.00;5050465;28;19913;-69
2022/05/18 07:46:52;;;;;;;;;;;;;;;-142.75;100.00;76263.22;5049648;28;19924;-68
2022/05/18 07:49:18;;;;;;;;;;;;;;;-142.75;100.00;76288.81;5035844;28;19921;-68
2022/05/18 07:51:43;;;;;;;;;;;;;;;-142.75;100.00;76278.97;5030467;28;19916;-69
2022/05/18 07:54:09;;;;;;;;;;;;;;;-142.75;100.00;76271.09;5030697;28;19916;-69
2022/05/18 07:56:34;;;;;;;;;;;;;;;-142.75;100.00;76243.53;5030451;28;19971;-68
2022/05/18 07:59:00;;;;;;;;;;;;;;;-142.75;100.00;76237.63;5029926;28;19912;-68
2022/05/18 08:01:25;;;;;;;;;;;;;;;-142.75;100.00;76210.06;5030166;28;19920;-67
2022/05/18 08:03:50;;;;;;;;;;;;;;;-142.75;100.00;76208.09;5030352;28;19912;-66
2022/05/18 08:06:16;;;;;;;;;;;;;;;-142.75;100.00;76200.25;5030399;28;19956;-67
2022/05/18 08:08:41;;;;;;;;;;;;;;;-142.75;100.00;76192.38;5030009;28;19923;-68
2022/05/18 08:16:34;;;;;;;;;;;;;;;-142.75;100.00;76204.16;5030164;28;19923;-67
2022/05/18 08:19:00;;;;;;;;;;;;;;;-142.75;100.00;76200.25;5029846;28;19913;-68
2022/05/18 08:21:26;;;;;;;;;;;;;;;-142.75;100.00;76198.28;5029134;28;20371;-68
2022/05/18 08:23:51;;;;;;;;;;;;;;;-142.75;100.00;76184.50;5033207;28;19916;-68
2022/05/18 08:26:16;;;;;;;;;;;;;;;-142.75;100.00;76200.25;5050233;28;19912;-68
2022/05/18 08:28:42;;;;;;;;;;;;;;;-142.75;100.00;76180.56;5049369;28;20370;-68
2022/05/18 08:31:07;;;;;;;;;;;;;;;-142.75;100.00;76186.47;5048509;28;19916;-68
2022/05/18 08:33:33;;;;;;;;;;;;;;;-142.75;100.00;76184.50;5050188;28;20469;-68
2022/05/18 08:36:05;;;;;;;;;;;;;;;-142.75;100.00;76182.53;5049989;28;19999;-68
2022/05/18 08:38:31;;;;;;;;;;;;;;;-142.75;100.00;76200.25;5049749;28;19916;-67
2022/05/18 08:40:59;;;;;;;;;;;;;;;-142.75;100.00;76208.09;5049937;28;19921;-67
2022/05/18 08:43:25;;;;;;;;;;;;;;;-142.75;100.00;76200.25;5049866;28;19948;-67
2022/05/18 08:45:59;;;;;;;;;;;;;;;-142.75;100.00;76219.91;5049653;28;19987;-67
2022/05/18 08:48:34;;;;;;;;;;;;;;;-142.75;100.00;76208.09;5049412;28;20386;-67
2022/05/18 08:51:02;;;;;;;;;;;;;;;-142.75;100.00;76192.38;5049825;28;19920;-67
2022/05/18 08:53:31;;;;;;;;;;;;;;;-142.75;100.00;76164.81;5049899;28;20003;-67
2022/05/18 08:55:58;;;;;;;;;;;;;;;-142.75;100.00;76158.91;5049632;28;20011;-66
2022/05/18 08:58:27;;;;;;;;;;;;;;;-142.75;100.00;76129.38;5049029;28;20412;-69
2022/05/18 09:00:55;;;;;;;;;;;;;;;-142.75;100.00;76111.66;5049831;28;20008;-69
2022/05/18 09:03:41;;;;;;;;;;;;;;;-142.75;100.00;76125.44;5050201;28;19967;-68
2022/05/18 09:06:11;;;;;;;;;;;;;;;-142.75;100.00;76082.13;5038538;28;19999;-69
2022/05/18 09:08:38;;;;;;;;;;;;;;;-142.75;100.00;76054.59;5049227;28;19952;-69
2022/05/18 09:11:03;;;;;;;;;;;;;;;-142.75;100.00;76066.41;5049220;28;19917;-69
2022/05/18 09:13:30;;;;;;;;;;;;;;;-142.75;100.00;76052.63;5053000;28;20274;-69
2022/05/18 09:16:13;;;;;;;;;;;;;;;-142.75;100.00;76054.59;5054270;28;20271;-69
2022/05/18 09:18:38;;;;;;;;;;;;;;;-142.75;100.00;76021.13;5053927;28;19920;-69
2022/05/18 09:21:19;;;;;;;;;;;;;;;-142.75;100.00;76023.09;5054206;28;19916;-69
2022/05/18 09:23:55;;;;;;;;;;;;;;;-142.75;100.00;76046.72;5054202;28;19920;-68
2022/05/18 09:26:35;;;;;;;;;;;;;;;-142.75;100.00;76044.75;5054110;28;19916;-68
2022/05/18 09:29:25;;;;;;;;;;;;;;;-142.75;100.00;76030.97;5052464;28;20356;-70
2022/05/18 09:31:59;;;;;;;;;;;;;;;-142.75;100.00;76023.09;5052689;28;19999;-70
2022/05/18 09:34:43;;;;;;;;;;;;;;;-142.75;100.00;76027.03;5054080;28;19921;-69
2022/05/18 09:37:10;;;;;;;;;;;;;;;-142.75;100.00;75991.59;5053951;28;19912;-69
2022/05/18 09:39:44;;;;;;;;;;;;;;;-142.75;100.00;75973.88;5053636;28;19913;-68
2022/05/18 09:42:15;;;;;;;;;;;;;;;-142.75;100.00;76015.22;5053993;28;19928;-68
2022/05/18 09:44:43;;;;;;;;;;;;;;;-142.75;100.00;76007.34;5053859;28;19919;-67
2022/05/18 09:47:10;;;;;;;;;;;;;;;-142.75;100.00;75995.53;5053711;28;19913;-68
2022/05/18 09:49:50;;;;;;;;;;;;;;;-142.75;100.00;75973.88;5053277;28;20039;-69
2022/05/18 09:52:17;;;;;;;;;;;;;;;-142.75;100.00;75967.97;5053561;28;19982;-69
2022/05/18 09:54:42;;;;;;;;;;;;;;;-142.75;100.00;75952.25;5052291;28;19916;-68
2022/05/18 09:57:13;;;;;;;;;;;;;;;-142.75;100.00;75918.78;5053507;28;19912;-67
2022/05/18 09:59:52;;;;;;;;;;;;;;;-142.75;100.00;75912.88;5053278;28;19912;-69
2022/05/18 10:08:09;;;;;;;;;;;;;;;-142.75;100.00;75916.81;5052824;28;19919;-69
2022/05/18 10:10:38;;;;;;;;;;;;;;;-142.75;100.00;75916.81;5053244;28;20011;-68
2022/05/18 10:13:10;;;;;;;;;;;;;;;-142.75;100.00;75967.97;5053331;28;19935;-68
2022/05/18 10:15:43;;;;;;;;;;;;;;;-142.75;100.00;75954.22;5053448;28;19963;-68
2022/05/18 10:18:11;;;;;;;;;;;;;;;-142.75;100.00;75983.72;5052738;28;19924;-68
2022/05/18 10:20:37;;;;;;;;;;;;;;;-142.75;100.00;75979.78;5053211;28;19919;-69
2022/05/18 10:23:02;;;;;;;;;;;;;;;-142.75;100.00;75942.41;5052958;28;19991;-68
2022/05/18 10:25:34;;;;;;;;;;;;;;;-142.75;100.00;75928.63;5051384;28;19920;-69
2022/05/18 10:28:03;;;;;;;;;;;;;;;-142.75;100.00;75938.47;5052633;28;20000;-68
2022/05/18 10:30:30;;;;;;;;;;;;;;;-142.75;100.00;75899.09;5052886;28;19927;-68
2022/05/18 10:32:58;;;;;;;;;;;;;;;-142.75;100.00;75908.94;5052876;28;19944;-69
2022/05/18 10:35:38;;;;;;;;;;;;;;;-142.75;100.00;75928.63;5052843;28;19916;-69
2022/05/18 10:38:15;;;;;;;;;;;;;;;-142.75;100.00;75924.69;5052379;28;20003;-69
2022/05/18 10:40:40;;;;;;;;;;;;;;;-142.75;100.00;75908.94;5052778;28;19944;-69
2022/05/18 10:43:22;;;;;;;;;;;;;;;-142.75;100.00;75940.44;5052771;28;19955;-68
2022/05/18 10:45:55;;;;;;;;;;;;;;;-142.75;95.01;75885.31;5051455;28;19920;-68
2022/05/18 10:48:21;;;;;;;;;;;;;;;-142.75;93.84;75844.00;5052271;28;19913;-69
2022/05/18 10:50:48;;;;;;;;;;;;;;;-142.75;93.94;75853.84;5052378;28;20393;-68
2022/05/18 10:53:14;;;;;;;;;;;;;;;-142.75;86.98;75802.66;5052511;28;20386;-68
2022/05/18 10:55:54;;;;;;;;;;;;;;;-142.75;87.75;75800.69;5052481;28;19959;-69
2022/05/18 10:58:31;;;;;;;;;;;;;;;-142.75;80.19;75798.72;5050693;28;19913;-69
2022/05/18 11:00:56;;;;;;;;;;;;;;;-142.75;86.80;75903.03;5052444;28;19913;-69
2022/05/18 11:03:24;;;;;;;;;;;;;;;-142.75;95.06;75969.94;5052299;28;19962;-68
2022/05/18 11:05:52;;;;;;;;;;;;;;;-142.75;90.95;76001.44;5052240;28;19931;-68
2022/05/18 11:08:19;;;;;;;;;;;;;;;-142.75;96.72;76034.91;5051825;28;19913;-69
2022/05/18 11:10:49;;;;;;;;;;;;;;;-142.75;99.15;76054.59;5052072;28;20416;-69
2022/05/18 11:13:19;;;;;;;;;;;;;;;-142.75;100.00;76054.59;5052093;28;19917;-69
2022/05/18 11:15:50;;;;;;;;;;;;;;;-142.75;92.58;76042.78;5052003;28;20019;-69
2022/05/18 11:18:30;;;;;;;;;;;;;;;-142.75;91.05;76080.16;5051684;28;20439;-69
2022/05/18 11:21:23;;;;;;;;;;;;;;;-142.75;91.91;76054.59;5051970;28;19978;-69
2022/05/18 11:23:54;;;;;;;;;;;;;;;-142.75;92.55;76027.03;5051875;28;19999;-69
2022/05/18 11:26:28;;;;;;;;;;;;;;;-142.75;88.67;75983.72;5051523;28;20791;-69
2022/05/18 11:29:08;;;;;;;;;;;;;;;-142.75;84.51;75977.81;5051574;28;20297;-70
2022/05/18 11:31:48;;;;;;;;;;;;;;;-142.75;88.56;75964.03;5051671;28;20242;-70
2022/05/18 11:34:24;;;;;;;;;;;;;;;-142.75;83.05;75971.91;5051660;28;19921;-69
2022/05/18 11:37:08;;;;;;;;;;;;;;;-142.75;82.99;75932.56;5050906;28;19916;-69
2022/05/18 11:39:53;;;;;;;;;;;;;;;-142.75;84.91;75908.94;5051246;28;19913;-69
2022/05/18 11:42:25;;;;;;;;;;;;;;;-142.75;80.36;75912.88;5044008;28;19951;-70
2022/05/18 11:45:03;;;;;;;;;;;;;;;-142.75;78.77;75863.66;5051423;28;19913;-69
2022/05/18 11:47:49;;;;;;;;;;;;;;;-142.75;76.92;75867.59;5051321;28;19913;-69
2022/05/18 11:50:14;;;;;;;;;;;;;;;-142.75;74.11;75844.00;5051224;28;20436;-69
2022/05/18 11:52:39;;;;;;;;;;;;;;;-142.75;73.32;75842.03;5050160;28;19916;-68
2022/05/18 11:55:23;;;;;;;;;;;;;;;-142.75;78.08;75853.84;5051446;28;19982;-69
2022/05/18 11:58:07;;;;;;;;;;;;;;;-142.75;77.92;75826.28;5051150;28;19958;-69
2022/05/18 12:00:56;;;;;;;;;;;;;;;-142.75;76.14;75849.91;5049963;28;20271;-69
2022/05/18 12:03:32;;;;;;;;;;;;;;;-142.75;74.47;75851.88;5051163;28;20011;-69
2022/05/18 12:06:15;;;;;;;;;;;;;;;-142.75;76.98;75875.47;5051124;28;19913;-69
2022/05/18 12:08:52;;;;;;;;;;;;;;;-142.75;77.06;75871.53;5064200;22;19921;-70
2022/05/18 12:11:29;;;;;;;;;;;;;;;-142.75;76.20;75869.56;5030100;28;19996;-71
2022/05/18 12:13:59;;;;;;;;;;;;;;;-142.75;76.09;75867.59;5030667;28;19913;-71
2022/05/18 12:16:24;;;;;;;;;;;;;;;-142.75;76.66;75851.88;5031232;28;20385;-71
2022/05/18 12:18:59;;;;;;;;;;;;;;;-142.75;72.40;75861.69;5040636;28;19913;-71
2022/05/18 12:21:36;;;;;;;;;;;;;;;-142.75;73.61;75867.59;5050990;28;19916;-71
2022/05/18 12:24:03;;;;;;;;;;;;;;;-142.75;79.23;75908.94;5051021;28;19917;-71
2022/05/18 12:26:30;;;;;;;;;;;;;;;-142.75;77.41;75889.25;5050807;28;19912;-71
2022/05/18 12:28:55;;;;;;;;;;;;;;;-142.75;75.12;75863.66;5050240;28;19916;-71
2022/05/18 12:31:21;;;;;;;;;;;;;;;-142.75;73.43;75857.78;5050605;28;20003;-71
2022/05/18 12:33:56;;;;;;;;;;;;;;;-142.75;72.53;75871.53;5032619;28;19912;-73
2022/05/18 12:36:31;;;;;;;;;;;;;;;-142.75;77.07;75893.19;5050553;28;19913;-71
2022/05/18 12:39:06;;;;;;;;;;;;;;;-142.75;79.59;75906.97;5050116;28;19912;-70
2022/05/18 12:41:31;;;;;;;;;;;;;;;-142.75;74.96;75895.16;5049967;28;19921;-71